Time;durP1;ratioP1;P1;durP2;ratioP2;P2;SDS_P1;SDS_P2;PMS_P1;PMS_P2;Temp;Humidity;BMP_temperature;BMP_pressure;BME280_temperature;BME280_humidity;BME280_pressure;Samples;Min_cycle;Max_cycle;Signal;HPM_P1;HPM_P2
2023/10/31 00:02:40;;;;;;;;;;;16.00;92.30;;;;;;4191410;28;19931;-48
2023/10/31 00:05:21;;;;;;;;;;;15.90;92.70;;;;;;4191167;28;19959;-48
2023/10/31 00:08:02;;;;;;;;;;;15.90;92.30;;;;;;4160576;28;19975;-49
2023/10/31 00:10:44;;;;;;;;;;;15.90;92.30;;;;;;4177044;28;19951;-47
2023/10/31 00:13:25;;;;;;;;;;;15.90;92.30;;;;;;4190899;28;19955;-51
2023/10/31 00:16:08;;;;;;;;;;;15.90;92.30;;;;;;4191297;28;19931;-48
2023/10/31 00:18:48;;;;;;;;;;;15.90;92.30;;;;;;4190763;28;20482;-48
2023/10/31 00:21:29;;;;;;;;;;;15.90;92.30;;;;;;4191437;28;19931;-47
2023/10/31 00:24:10;;;;;;;;;;;15.90;92.30;;;;;;4173861;28;19967;-47
2023/10/31 00:26:50;;;;;;;;;;;15.80;92.30;;;;;;4159007;28;19959;-48
2023/10/31 00:29:31;;;;;;;;;;;15.80;92.30;;;;;;4172923;28;20399;-46
2023/10/31 00:32:13;;;;;;;;;;;15.80;92.70;;;;;;4174994;28;19951;-47
2023/10/31 00:34:54;;;;;;;;;;;15.80;92.30;;;;;;4185349;28;20005;-48
2023/10/31 00:37:34;;;;;;;;;;;15.80;92.40;;;;;;4189318;28;19932;-48
2023/10/31 00:40:16;;;;;;;;;;;15.80;92.30;;;;;;4174987;28;19931;-49
2023/10/31 00:42:58;;;;;;;;;;;15.80;92.40;;;;;;4174455;28;19932;-51
2023/10/31 00:45:40;;;;;;;;;;;15.80;92.40;;;;;;4175482;28;20005;-48
2023/10/31 00:48:22;;;;;;;;;;;15.80;92.30;;;;;;4172971;28;19951;-50
2023/10/31 00:51:04;;;;;;;;;;;15.80;92.40;;;;;;4190157;28;20060;-47
2023/10/31 00:53:44;;;;;;;;;;;15.70;92.40;;;;;;4172429;28;20303;-50
2023/10/31 00:56:25;;;;;;;;;;;15.80;92.50;;;;;;4172571;28;19936;-47
2023/10/31 00:59:06;;;;;;;;;;;15.70;92.40;;;;;;4180381;28;19943;-47
2023/10/31 01:01:47;;;;;;;;;;;15.70;92.50;;;;;;4189808;28;19931;-52
2023/10/31 01:04:29;;;;;;;;;;;15.70;92.80;;;;;;4190216;28;20021;-50
2023/10/31 01:07:11;;;;;;;;;;;15.70;92.50;;;;;;4189520;28;19935;-52
2023/10/31 01:09:52;;;;;;;;;;;15.70;92.90;;;;;;4190028;28;19935;-47
2023/10/31 01:12:33;;;;;;;;;;;15.70;92.50;;;;;;4180709;28;19931;-47
2023/10/31 01:15:14;;;;;;;;;;;15.70;92.50;;;;;;4172643;28;20051;-50
2023/10/31 01:17:55;;;;;;;;;;;15.70;92.50;;;;;;4178059;28;19936;-49
2023/10/31 01:20:38;;;;;;;;;;;15.70;92.50;;;;;;4175364;28;19931;-48
2023/10/31 01:23:19;;;;;;;;;;;15.70;92.50;;;;;;4173570;28;19971;-48
2023/10/31 01:25:59;;;;;;;;;;;15.70;92.60;;;;;;4189526;28;19994;-50
2023/10/31 01:28:39;;;;;;;;;;;15.70;92.90;;;;;;4186992;28;19947;-48
2023/10/31 01:31:20;;;;;;;;;;;15.70;92.60;;;;;;4180648;28;19951;-46
2023/10/31 01:34:01;;;;;;;;;;;15.70;92.60;;;;;;4181843;28;19932;-47
2023/10/31 01:36:43;;;;;;;;;;;15.70;92.60;;;;;;4177583;28;20267;-47
2023/10/31 01:39:24;;;;;;;;;;;15.70;93.00;;;;;;4177455;28;20013;-52
2023/10/31 01:42:06;;;;;;;;;;;15.70;92.50;;;;;;4188837;28;19931;-47
2023/10/31 01:44:46;;;;;;;;;;;15.70;92.60;;;;;;4188768;28;19981;-48
2023/10/31 01:47:27;;;;;;;;;;;15.70;92.60;;;;;;4175924;28;19990;-48
2023/10/31 01:50:09;;;;;;;;;;;15.60;92.60;;;;;;4169457;28;19947;-49
2023/10/31 01:52:52;;;;;;;;;;;15.60;92.40;;;;;;4181552;28;19983;-49
2023/10/31 01:55:33;;;;;;;;;;;15.60;92.30;;;;;;4176881;28;19931;-46
2023/10/31 01:58:15;;;;;;;;;;;15.60;92.40;;;;;;4188116;28;20044;-48
2023/10/31 02:00:56;;;;;;;;;;;15.60;92.50;;;;;;4188561;28;19932;-47
2023/10/31 02:03:38;;;;;;;;;;;15.60;92.40;;;;;;4187909;28;20492;-46
2023/10/31 02:06:18;;;;;;;;;;;15.60;92.30;;;;;;4171745;28;20279;-46
2023/10/31 02:09:01;;;;;;;;;;;15.60;92.30;;;;;;4158741;28;20050;-46
2023/10/31 02:11:41;;;;;;;;;;;15.60;92.50;;;;;;4181468;28;19932;-47
2023/10/31 02:14:23;;;;;;;;;;;15.60;92.60;;;;;;4179929;28;19932;-46
2023/10/31 02:17:03;;;;;;;;;;;15.60;92.60;;;;;;4172386;28;19935;-54
2023/10/31 02:19:44;;;;;;;;;;;15.60;92.70;;;;;;4176818;28;20038;-50
2023/10/31 02:22:26;;;;;;;;;;;15.60;92.80;;;;;;4171715;28;20307;-47
2023/10/31 02:25:16;;;;;;;;;;;15.60;92.80;;;;;;4172189;28;19967;-48
2023/10/31 02:27:57;;;;;;;;;;;15.50;93.20;;;;;;4172551;28;19932;-47
2023/10/31 02:30:37;;;;;;;;;;;15.50;92.80;;;;;;4175343;28;19935;-47
2023/10/31 02:33:18;;;;;;;;;;;15.50;92.80;;;;;;4188246;28;20074;-49
2023/10/31 02:35:59;;;;;;;;;;;15.50;92.80;;;;;;4187268;28;20438;-52
2023/10/31 02:38:41;;;;;;;;;;;15.50;92.90;;;;;;4176943;28;19936;-49
2023/10/31 02:41:23;;;;;;;;;;;15.50;92.80;;;;;;4187848;28;19932;-50
2023/10/31 02:44:04;;;;;;;;;;;15.50;92.80;;;;;;4177414;28;20387;-53
2023/10/31 02:46:44;;;;;;;;;;;15.50;92.90;;;;;;4187000;28;20305;-51
2023/10/31 02:49:25;;;;;;;;;;;15.50;92.90;;;;;;4185745;28;20025;-49
2023/10/31 02:52:06;;;;;;;;;;;15.50;92.90;;;;;;4169240;28;20066;-48
2023/10/31 02:54:48;;;;;;;;;;;15.50;92.90;;;;;;4186022;28;20374;-50
2023/10/31 02:57:29;;;;;;;;;;;15.60;92.90;;;;;;4186895;28;19931;-46
2023/10/31 03:00:10;;;;;;;;;;;15.60;92.90;;;;;;4176255;28;20002;-46
2023/10/31 03:02:50;;;;;;;;;;;15.60;92.80;;;;;;4186413;28;19935;-46
2023/10/31 03:05:31;;;;;;;;;;;15.70;92.80;;;;;;4187583;28;19931;-49
2023/10/31 03:08:12;;;;;;;;;;;15.70;92.70;;;;;;4186444;28;20009;-49
2023/10/31 03:10:55;;;;;;;;;;;15.80;92.70;;;;;;4186939;28;19935;-50
2023/10/31 03:13:36;;;;;;;;;;;15.80;92.70;;;;;;4173228;28;19935;-45
2023/10/31 03:16:16;;;;;;;;;;;15.80;92.60;;;;;;4183918;28;20926;-47
2023/10/31 03:18:57;;;;;;;;;;;15.80;92.60;;;;;;4173153;28;20005;-47
2023/10/31 03:21:39;;;;;;;;;;;15.80;92.50;;;;;;4186388;28;19930;-47
2023/10/31 03:24:21;;;;;;;;;;;15.80;92.50;;;;;;4179804;28;19931;-49
2023/10/31 03:27:03;;;;;;;;;;;15.80;92.50;;;;;;4185164;28;19935;-49
2023/10/31 03:29:45;;;;;;;;;;;15.80;92.50;;;;;;4178420;28;19948;-47
2023/10/31 03:32:26;;;;;;;;;;;15.80;92.60;;;;;;4170245;28;20378;-50
2023/10/31 03:35:07;;;;;;;;;;;15.80;92.60;;;;;;4169692;28;19932;-49
2023/10/31 03:37:48;;;;;;;;;;;15.80;92.50;;;;;;4170008;28;19932;-47
2023/10/31 03:40:29;;;;;;;;;;;15.80;92.60;;;;;;4181632;28;20793;-50
2023/10/31 03:43:11;;;;;;;;;;;15.70;92.60;;;;;;4187668;28;20086;-47
2023/10/31 03:45:52;;;;;;;;;;;15.70;92.60;;;;;;4187690;28;19936;-47
2023/10/31 03:48:33;;;;;;;;;;;15.70;93.00;;;;;;4187937;28;19990;-50
2023/10/31 03:51:14;;;;;;;;;;;15.70;92.70;;;;;;4187009;28;19989;-49
2023/10/31 03:53:54;;;;;;;;;;;15.80;92.70;;;;;;4187940;28;19935;-48
2023/10/31 03:56:39;;;;;;;;;;;15.80;93.00;;;;;;4187453;28;19977;-50
2023/10/31 03:59:21;;;;;;;;;;;15.80;92.50;;;;;;4171580;28;19932;-51
2023/10/31 04:02:02;;;;;;;;;;;15.80;92.50;;;;;;4171667;28;19936;-49
2023/10/31 04:04:43;;;;;;;;;;;15.80;92.40;;;;;;4178367;28;20025;-51
2023/10/31 04:07:24;;;;;;;;;;;15.80;92.50;;;;;;4174245;28;20340;-48
2023/10/31 04:10:05;;;;;;;;;;;15.90;92.50;;;;;;4184418;28;19951;-50
2023/10/31 04:12:46;;;;;;;;;;;15.90;92.40;;;;;;4170032;28;19990;-47
2023/10/31 04:15:28;;;;;;;;;;;16.00;92.40;;;;;;4168665;28;19932;-52
2023/10/31 04:18:09;;;;;;;;;;;16.00;92.30;;;;;;4165694;28;19931;-51
2023/10/31 04:20:49;;;;;;;;;;;16.00;92.20;;;;;;4161525;28;20296;-49
2023/10/31 04:23:30;;;;;;;;;;;16.00;92.30;;;;;;4171894;28;20145;-50
2023/10/31 04:26:11;;;;;;;;;;;16.00;92.20;;;;;;4179214;28;20051;-47
2023/10/31 04:28:52;;;;;;;;;;;16.00;92.20;;;;;;4170654;28;19931;-48
2023/10/31 04:31:34;;;;;;;;;;;16.00;92.20;;;;;;4158781;28;20014;-50
2023/10/31 04:34:21;;;;;;;;;;;16.00;92.30;;;;;;4170092;28;19932;-52
2023/10/31 04:37:02;;;;;;;;;;;16.00;92.20;;;;;;4186045;28;19936;-50
2023/10/31 04:39:42;;;;;;;;;;;16.10;92.20;;;;;;4187936;28;19935;-51
2023/10/31 04:42:23;;;;;;;;;;;16.10;92.10;;;;;;4170861;28;19931;-47
2023/10/31 04:45:04;;;;;;;;;;;16.10;92.10;;;;;;4154168;28;19936;-46
2023/10/31 04:47:46;;;;;;;;;;;16.10;92.10;;;;;;4161086;28;19936;-48
2023/10/31 04:50:27;;;;;;;;;;;16.10;92.00;;;;;;4165591;28;19978;-48
2023/10/31 04:53:08;;;;;;;;;;;16.10;92.00;;;;;;4172928;28;19980;-48
2023/10/31 04:55:49;;;;;;;;;;;16.10;92.10;;;;;;4172432;28;19932;-52
2023/10/31 04:58:30;;;;;;;;;;;16.10;92.10;;;;;;4169518;28;20348;-47
2023/10/31 05:01:10;;;;;;;;;;;16.10;92.50;;;;;;4158227;28;19936;-51
2023/10/31 05:03:53;;;;;;;;;;;16.00;92.10;;;;;;4173446;28;19932;-45
2023/10/31 05:06:38;;;;;;;;;;;16.00;92.10;;;;;;4172751;28;19936;-50
2023/10/31 05:09:20;;;;;;;;;;;16.00;92.20;;;;;;4172980;28;20502;-48
2023/10/31 05:12:00;;;;;;;;;;;16.00;92.20;;;;;;4179445;28;19952;-47
2023/10/31 05:14:41;;;;;;;;;;;16.10;92.20;;;;;;4176218;28;19931;-48
2023/10/31 05:17:22;;;;;;;;;;;16.10;92.20;;;;;;4182703;28;19936;-49
2023/10/31 05:20:05;;;;;;;;;;;16.10;92.10;;;;;;4172977;28;19936;-49
2023/10/31 05:22:46;;;;;;;;;;;16.10;92.10;;;;;;4178704;28;19936;-50
2023/10/31 05:25:26;;;;;;;;;;;16.10;92.10;;;;;;4172606;28;20455;-51
2023/10/31 05:28:07;;;;;;;;;;;16.10;92.10;;;;;;4175323;28;20498;-50
2023/10/31 05:30:47;;;;;;;;;;;16.10;92.10;;;;;;4187478;28;19935;-49
2023/10/31 05:33:28;;;;;;;;;;;16.10;92.00;;;;;;4180165;28;20482;-50
2023/10/31 05:36:19;;;;;;;;;;;16.20;92.00;;;;;;4189039;28;19943;-50
2023/10/31 05:39:00;;;;;;;;;;;16.20;92.00;;;;;;4188189;28;19939;-50
2023/10/31 05:41:41;;;;;;;;;;;16.10;92.00;;;;;;4182008;28;19936;-47
2023/10/31 05:44:22;;;;;;;;;;;16.10;92.00;;;;;;4182271;28;20651;-52
2023/10/31 05:47:02;;;;;;;;;;;16.10;92.40;;;;;;4189102;28;19973;-48
2023/10/31 05:49:43;;;;;;;;;;;16.10;92.00;;;;;;4163580;28;19952;-48
2023/10/31 05:52:28;;;;;;;;;;;16.10;92.10;;;;;;4172713;28;20086;-50
2023/10/31 05:55:09;;;;;;;;;;;16.00;92.10;;;;;;4183511;28;20013;-51
2023/10/31 05:57:50;;;;;;;;;;;16.10;92.10;;;;;;4188064;28;19935;-49
2023/10/31 06:00:31;;;;;;;;;;;16.00;92.10;;;;;;4175478;28;19951;-48
2023/10/31 06:03:11;;;;;;;;;;;16.00;92.20;;;;;;4172804;28;20005;-49
2023/10/31 06:05:52;;;;;;;;;;;16.00;92.20;;;;;;4174028;28;20052;-50
2023/10/31 06:08:34;;;;;;;;;;;16.00;92.20;;;;;;4172382;28;19932;-48
2023/10/31 06:11:15;;;;;;;;;;;16.00;92.10;;;;;;4171797;28;19978;-47
2023/10/31 06:13:56;;;;;;;;;;;16.00;92.10;;;;;;4179511;28;20430;-52
2023/10/31 06:16:40;;;;;;;;;;;16.10;92.20;;;;;;4172400;28;19931;-50
2023/10/31 06:19:21;;;;;;;;;;;16.10;92.00;;;;;;4169577;28;20074;-52
2023/10/31 06:22:02;;;;;;;;;;;16.20;92.00;;;;;;4173917;28;19932;-47
2023/10/31 06:24:44;;;;;;;;;;;16.20;92.00;;;;;;4181853;28;20605;-48
2023/10/31 06:27:25;;;;;;;;;;;16.20;92.20;;;;;;4184075;28;20446;-48
2023/10/31 06:30:06;;;;;;;;;;;16.20;91.90;;;;;;4172166;28;20067;-50
2023/10/31 06:32:56;;;;;;;;;;;16.20;92.00;;;;;;4172211;28;20010;-50
2023/10/31 06:35:37;;;;;;;;;;;16.20;92.10;;;;;;4172060;28;20507;-49
2023/10/31 06:38:18;;;;;;;;;;;16.20;92.10;;;;;;4164358;28;19932;-51
2023/10/31 06:41:00;;;;;;;;;;;16.20;92.10;;;;;;4171699;28;19931;-47
2023/10/31 06:43:40;;;;;;;;;;;16.20;92.00;;;;;;4179966;28;19973;-48
2023/10/31 06:46:21;;;;;;;;;;;16.20;92.00;;;;;;4185450;28;19935;-46
2023/10/31 06:49:02;;;;;;;;;;;16.30;91.90;;;;;;4186911;28;19935;-46
2023/10/31 06:51:43;;;;;;;;;;;16.30;92.00;;;;;;4172949;28;20470;-46
2023/10/31 06:54:24;;;;;;;;;;;16.30;92.00;;;;;;4176193;28;20314;-45
2023/10/31 06:57:06;;;;;;;;;;;16.30;91.90;;;;;;4188010;28;20258;-46
2023/10/31 06:59:47;;;;;;;;;;;16.20;91.90;;;;;;4180751;28;19940;-48
2023/10/31 07:02:27;;;;;;;;;;;16.20;91.90;;;;;;4185579;28;19955;-49
2023/10/31 07:05:09;;;;;;;;;;;16.20;91.90;;;;;;4187745;28;20303;-49
2023/10/31 07:07:50;;;;;;;;;;;16.20;91.90;;;;;;4173444;28;19936;-48
2023/10/31 07:10:30;;;;;;;;;;;16.20;92.00;;;;;;4185446;28;19931;-46
2023/10/31 07:13:12;;;;;;;;;;;16.20;92.40;;;;;;4184826;28;20005;-50
2023/10/31 07:15:53;;;;;;;;;;;16.10;92.10;;;;;;4187829;28;20390;-50
2023/10/31 07:18:34;;;;;;;;;;;16.10;92.10;;;;;;4187544;28;19935;-53
2023/10/31 07:21:15;;;;;;;;;;;16.10;92.10;;;;;;4174460;28;19950;-51
2023/10/31 07:23:56;;;;;;;;;;;16.10;92.20;;;;;;4158772;28;20391;-50
2023/10/31 07:26:37;;;;;;;;;;;16.20;92.10;;;;;;4171309;28;19931;-48
2023/10/31 07:29:19;;;;;;;;;;;16.20;92.00;;;;;;4173317;28;19936;-49
2023/10/31 07:32:01;;;;;;;;;;;16.20;92.20;;;;;;4182112;28;19931;-48
2023/10/31 07:34:42;;;;;;;;;;;16.30;91.70;;;;;;4173696;28;19931;-53
2023/10/31 07:37:23;;;;;;;;;;;16.30;91.70;;;;;;4183976;28;19936;-51
2023/10/31 07:40:05;;;;;;;;;;;16.30;91.50;;;;;;4177462;28;19936;-54
2023/10/31 07:42:45;;;;;;;;;;;16.30;91.40;;;;;;4187728;28;20074;-48
2023/10/31 07:45:27;;;;;;;;;;;16.30;91.30;;;;;;4167442;28;20017;-50
2023/10/31 07:48:08;;;;;;;;;;;16.30;91.20;;;;;;4175725;28;20070;-49
2023/10/31 07:50:49;;;;;;;;;;;16.30;91.10;;;;;;4171449;28;19932;-52
2023/10/31 07:53:30;;;;;;;;;;;16.30;91.10;;;;;;4172353;28;19936;-55
2023/10/31 07:56:15;;;;;;;;;;;16.30;91.20;;;;;;4167303;28;19936;-51
2023/10/31 07:58:57;;;;;;;;;;;16.30;91.20;;;;;;4186800;28;19936;-51
2023/10/31 08:01:39;;;;;;;;;;;16.30;91.20;;;;;;4180795;28;19934;-50
2023/10/31 08:04:20;;;;;;;;;;;16.20;91.20;;;;;;4186292;28;19932;-50
2023/10/31 08:07:01;;;;;;;;;;;16.20;91.20;;;;;;4174438;28;19943;-49
2023/10/31 08:09:42;;;;;;;;;;;16.20;91.70;;;;;;4177795;28;19936;-52
2023/10/31 08:12:23;;;;;;;;;;;16.10;91.30;;;;;;4185345;28;20307;-51
2023/10/31 08:15:04;;;;;;;;;;;16.10;91.30;;;;;;4172849;28;19932;-54
2023/10/31 08:17:46;;;;;;;;;;;16.10;91.30;;;;;;4176590;28;19935;-51
2023/10/31 08:20:32;;;;;;;;;;;16.00;91.30;;;;;;4177849;28;20017;-54
2023/10/31 08:23:13;;;;;;;;;;;16.00;91.40;;;;;;4182781;28;19931;-51
2023/10/31 08:25:53;;;;;;;;;;;16.00;91.80;;;;;;4188936;28;19934;-53
2023/10/31 08:28:34;;;;;;;;;;;16.00;91.50;;;;;;4190288;28;19973;-49
2023/10/31 08:31:15;;;;;;;;;;;15.90;91.50;;;;;;4189572;28;19947;-50
2023/10/31 08:33:57;;;;;;;;;;;15.90;91.90;;;;;;4181930;28;20129;-49
2023/10/31 08:36:39;;;;;;;;;;;15.90;91.60;;;;;;4183588;28;19934;-51
2023/10/31 08:39:19;;;;;;;;;;;15.90;91.60;;;;;;4184160;28;19940;-51
2023/10/31 08:42:00;;;;;;;;;;;15.80;92.00;;;;;;4179726;28;20022;-52
2023/10/31 08:44:41;;;;;;;;;;;15.80;91.60;;;;;;4173251;28;19932;-50
2023/10/31 08:47:24;;;;;;;;;;;15.80;91.70;;;;;;4174926;28;19931;-53
2023/10/31 08:50:08;;;;;;;;;;;15.80;91.70;;;;;;4187283;28;20405;-48
2023/10/31 08:52:49;;;;;;;;;;;15.80;91.80;;;;;;4187216;28;19931;-53
2023/10/31 08:55:30;;;;;;;;;;;15.80;91.80;;;;;;4182269;28;20025;-54
2023/10/31 08:58:10;;;;;;;;;;;15.80;92.20;;;;;;4173297;28;19932;-46
2023/10/31 09:00:51;;;;;;;;;;;15.70;91.80;;;;;;4179978;28;19932;-45
2023/10/31 09:03:32;;;;;;;;;;;15.70;91.90;;;;;;4156829;28;19982;-45
2023/10/31 09:06:13;;;;;;;;;;;15.70;91.90;;;;;;4155508;28;20136;-45
2023/10/31 09:08:54;;;;;;;;;;;15.70;91.90;;;;;;4172721;28;19931;-48
2023/10/31 09:11:35;;;;;;;;;;;15.70;92.00;;;;;;4158433;28;19978;-49
2023/10/31 09:14:15;;;;;;;;;;;15.70;92.00;;;;;;4179847;28;19932;-51
2023/10/31 09:16:56;;;;;;;;;;;15.70;92.10;;;;;;4189591;28;19932;-50
2023/10/31 09:19:37;;;;;;;;;;;15.70;92.10;;;;;;4187564;28;19939;-52
2023/10/31 09:22:18;;;;;;;;;;;15.70;92.00;;;;;;4173986;28;19932;-50
2023/10/31 09:24:59;;;;;;;;;;;15.60;92.40;;;;;;4173530;28;19990;-50
2023/10/31 09:27:41;;;;;;;;;;;15.60;91.80;;;;;;4182644;28;19935;-49
2023/10/31 09:30:22;;;;;;;;;;;15.60;91.80;;;;;;4179375;28;19947;-48
2023/10/31 09:33:03;;;;;;;;;;;15.50;91.80;;;;;;4181528;28;20519;-51
2023/10/31 09:35:44;;;;;;;;;;;15.50;91.80;;;;;;4172138;28;19936;-53
2023/10/31 09:38:27;;;;;;;;;;;15.50;91.80;;;;;;4168196;28;19935;-49
2023/10/31 09:41:09;;;;;;;;;;;15.40;91.80;;;;;;4189262;28;20343;-50
2023/10/31 09:43:50;;;;;;;;;;;15.40;92.00;;;;;;4172136;28;19936;-49
2023/10/31 09:46:30;;;;;;;;;;;15.40;91.90;;;;;;4175141;28;20303;-50
2023/10/31 09:49:11;;;;;;;;;;;15.40;92.40;;;;;;4164091;28;20390;-51
2023/10/31 09:51:53;;;;;;;;;;;15.40;91.90;;;;;;4161685;28;20032;-53
2023/10/31 09:54:35;;;;;;;;;;;15.40;91.90;;;;;;4172461;28;19936;-53
2023/10/31 09:57:17;;;;;;;;;;;15.30;92.10;;;;;;4173103;28;20395;-52
2023/10/31 10:00:01;;;;;;;;;;;15.30;91.80;;;;;;4188632;28;19930;-52
2023/10/31 10:02:50;;;;;;;;;;;15.30;91.70;;;;;;4174000;28;19932;-52
2023/10/31 10:05:32;;;;;;;;;;;15.30;91.70;;;;;;4187581;28;19932;-50
2023/10/31 10:08:12;;;;;;;;;;;15.30;91.80;;;;;;4186479;28;19931;-50
2023/10/31 10:10:55;;;;;;;;;;;15.30;91.90;;;;;;4185657;28;19932;-54
2023/10/31 10:13:36;;;;;;;;;;;15.30;92.00;;;;;;4186334;28;19981;-52
2023/10/31 10:16:28;;;;;;;;;;;15.30;91.80;;;;;;4166508;28;20448;-53
2023/10/31 10:19:16;;;;;;;;;;;15.30;91.90;;;;;;4170408;28;19939;-50
2023/10/31 10:21:58;;;;;;;;;;;15.30;91.80;;;;;;4171532;28;20399;-54
2023/10/31 10:24:40;;;;;;;;;;;15.30;91.80;;;;;;4182191;28;19931;-53
2023/10/31 10:27:22;;;;;;;;;;;15.30;91.90;;;;;;4187922;28;19935;-53
2023/10/31 10:30:04;;;;;;;;;;;15.30;91.90;;;;;;4187605;28;20032;-50
2023/10/31 10:32:45;;;;;;;;;;;15.30;91.80;;;;;;4177519;28;19935;-50
2023/10/31 10:35:26;;;;;;;;;;;15.30;91.60;;;;;;4171263;28;19935;-54
2023/10/31 10:38:10;;;;;;;;;;;15.30;91.40;;;;;;4184365;28;19999;-49
2023/10/31 10:40:50;;;;;;;;;;;15.30;91.30;;;;;;4170816;28;19936;-49
2023/10/31 10:43:35;;;;;;;;;;;15.30;91.20;;;;;;4186499;28;19931;-53
2023/10/31 10:46:16;;;;;;;;;;;15.30;91.40;;;;;;4184308;28;20287;-55
2023/10/31 10:48:59;;;;;;;;;;;15.30;91.40;;;;;;4184420;28;19981;-55
2023/10/31 10:51:44;;;;;;;;;;;15.30;91.50;;;;;;4186955;28;20029;-55
2023/10/31 10:54:28;;;;;;;;;;;15.30;91.60;;;;;;4181613;28;19931;-54
2023/10/31 10:57:10;;;;;;;;;;;15.30;91.40;;;;;;4187449;28;19931;-52
2023/10/31 10:59:56;;;;;;;;;;;15.30;91.40;;;;;;4169630;28;19936;-50
2023/10/31 11:02:37;;;;;;;;;;;15.30;91.60;;;;;;4164944;28;20074;-53
2023/10/31 11:05:19;;;;;;;;;;;15.40;91.40;;;;;;4184087;28;19936;-55
2023/10/31 11:08:00;;;;;;;;;;;15.30;91.60;;;;;;4180761;28;19935;-52
2023/10/31 11:10:41;;;;;;;;;;;15.30;90.90;;;;;;4170897;28;20449;-52
2023/10/31 11:13:23;;;;;;;;;;;15.40;91.00;;;;;;4175789;28;19940;-51
2023/10/31 11:16:10;;;;;;;;;;;15.40;91.10;;;;;;4176471;28;19956;-47
2023/10/31 11:18:51;;;;;;;;;;;15.40;91.20;;;;;;4175226;28;19936;-51
2023/10/31 11:21:32;;;;;;;;;;;15.40;91.10;;;;;;4182326;28;19932;-48
2023/10/31 11:24:12;;;;;;;;;;;15.40;90.60;;;;;;4186692;28;19935;-45
2023/10/31 11:26:54;;;;;;;;;;;15.40;90.70;;;;;;4187396;28;19943;-50
2023/10/31 11:29:35;;;;;;;;;;;15.40;90.40;;;;;;4187645;28;20402;-50
2023/10/31 11:32:18;;;;;;;;;;;15.40;90.50;;;;;;4158155;28;19935;-46
2023/10/31 11:35:00;;;;;;;;;;;15.40;90.50;;;;;;4181153;28;19931;-50
2023/10/31 11:37:41;;;;;;;;;;;15.40;90.30;;;;;;4186869;28;19978;-54
2023/10/31 11:40:22;;;;;;;;;;;15.40;90.70;;;;;;4183184;28;19932;-49
2023/10/31 11:43:04;;;;;;;;;;;15.40;90.30;;;;;;4181588;28;19931;-51
2023/10/31 11:45:47;;;;;;;;;;;15.40;89.80;;;;;;4154385;28;19936;-52
2023/10/31 11:48:43;;;;;;;;;;;15.40;89.90;;;;;;4184374;28;19936;-53
2023/10/31 11:51:25;;;;;;;;;;;15.50;90.00;;;;;;4185874;28;19931;-53
2023/10/31 11:54:09;;;;;;;;;;;15.40;90.00;;;;;;4178766;28;19931;-52
2023/10/31 11:56:52;;;;;;;;;;;15.40;90.30;;;;;;4187847;28;19931;-51
2023/10/31 11:59:36;;;;;;;;;;;15.40;90.30;;;;;;4168610;28;19974;-51
2023/10/31 12:02:18;;;;;;;;;;;15.50;90.30;;;;;;4168605;28;19936;-51
2023/10/31 12:05:09;;;;;;;;;;;15.50;90.20;;;;;;4175260;28;19936;-52
2023/10/31 12:07:51;;;;;;;;;;;15.50;90.30;;;;;;4188854;28;19935;-53
2023/10/31 12:10:32;;;;;;;;;;;15.50;90.30;;;;;;4180388;28;19936;-53
2023/10/31 12:13:13;;;;;;;;;;;15.50;90.70;;;;;;4180885;28;19931;-51
2023/10/31 12:15:55;;;;;;;;;;;15.50;89.70;;;;;;4189060;28;19935;-52
2023/10/31 12:18:36;;;;;;;;;;;15.50;89.20;;;;;;4181946;28;19996;-50
2023/10/31 12:21:16;;;;;;;;;;;15.50;89.50;;;;;;4184978;28;19981;-49
2023/10/31 12:24:04;;;;;;;;;;;15.50;90.00;;;;;;4189664;28;19935;-51
2023/10/31 12:26:46;;;;;;;;;;;15.50;90.10;;;;;;4184610;28;19978;-51
2023/10/31 12:29:26;;;;;;;;;;;15.50;90.20;;;;;;4176607;28;19963;-50
2023/10/31 12:32:13;;;;;;;;;;;15.50;90.10;;;;;;4179585;28;19944;-49
2023/10/31 12:34:54;;;;;;;;;;;15.50;90.10;;;;;;4177016;28;19932;-49
2023/10/31 12:37:35;;;;;;;;;;;15.50;90.40;;;;;;4179125;28;20379;-46
2023/10/31 12:40:18;;;;;;;;;;;15.50;91.10;;;;;;4189091;28;19935;-45
2023/10/31 12:42:59;;;;;;;;;;;15.60;90.80;;;;;;4182533;28;20062;-45
2023/10/31 12:45:40;;;;;;;;;;;15.60;90.80;;;;;;4185589;28;19962;-51
2023/10/31 12:48:24;;;;;;;;;;;15.60;91.20;;;;;;4156988;28;19948;-52
2023/10/31 12:51:09;;;;;;;;;;;15.60;90.80;;;;;;4168495;28;19936;-47
2023/10/31 12:53:50;;;;;;;;;;;15.60;90.90;;;;;;4160067;28;19932;-52
2023/10/31 12:56:42;;;;;;;;;;;15.60;90.70;;;;;;4173824;28;19936;-50
2023/10/31 12:59:22;;;;;;;;;;;15.60;90.80;;;;;;4177685;28;20000;-50
2023/10/31 13:02:03;;;;;;;;;;;15.60;90.80;;;;;;4187581;28;19935;-48
2023/10/31 13:04:44;;;;;;;;;;;15.60;91.30;;;;;;4185110;28;20409;-46
2023/10/31 13:07:27;;;;;;;;;;;15.70;91.30;;;;;;4170318;28;19987;-47
2023/10/31 13:10:09;;;;;;;;;;;15.70;91.20;;;;;;4182640;28;19943;-51
2023/10/31 13:12:52;;;;;;;;;;;15.70;91.90;;;;;;4173131;28;20051;-52
2023/10/31 13:15:36;;;;;;;;;;;15.70;91.40;;;;;;4182558;28;19935;-49
2023/10/31 13:18:17;;;;;;;;;;;15.80;91.50;;;;;;4182499;28;19940;-48
2023/10/31 13:20:58;;;;;;;;;;;15.70;91.60;;;;;;4184133;28;20299;-46
2023/10/31 13:23:39;;;;;;;;;;;15.80;91.60;;;;;;4177091;28;20422;-46
2023/10/31 13:26:19;;;;;;;;;;;15.80;91.50;;;;;;4176733;28;19943;-46
2023/10/31 13:29:01;;;;;;;;;;;15.80;90.50;;;;;;4168689;28;19948;-45
2023/10/31 13:31:42;;;;;;;;;;;15.80;90.20;;;;;;4189791;28;19936;-46
2023/10/31 13:34:24;;;;;;;;;;;15.80;90.00;;;;;;4176466;28;19932;-48
2023/10/31 13:37:06;;;;;;;;;;;15.70;90.60;;;;;;4171803;28;20023;-48
2023/10/31 13:39:47;;;;;;;;;;;15.70;90.60;;;;;;4179938;28;19936;-46
2023/10/31 13:42:28;;;;;;;;;;;15.70;90.50;;;;;;4171537;28;19931;-45
2023/10/31 13:45:10;;;;;;;;;;;15.60;90.70;;;;;;4159095;28;20402;-48
2023/10/31 13:47:51;;;;;;;;;;;15.60;91.00;;;;;;4187605;28;19935;-48
2023/10/31 13:50:32;;;;;;;;;;;15.60;91.10;;;;;;4175070;28;20275;-49
2023/10/31 13:53:12;;;;;;;;;;;15.60;91.60;;;;;;4184875;28;19936;-49
2023/10/31 13:55:54;;;;;;;;;;;15.60;91.20;;;;;;4169872;28;19935;-47
2023/10/31 13:58:35;;;;;;;;;;;15.60;91.30;;;;;;4177872;28;19974;-50
2023/10/31 14:01:19;;;;;;;;;;;15.60;91.30;;;;;;4172113;28;20051;-48
2023/10/31 14:03:59;;;;;;;;;;;15.60;91.30;;;;;;4170557;28;20722;-50
2023/10/31 14:06:41;;;;;;;;;;;15.60;91.20;;;;;;4187675;28;19990;-51
2023/10/31 14:09:22;;;;;;;;;;;15.60;91.10;;;;;;4182682;28;19947;-49
2023/10/31 14:12:03;;;;;;;;;;;15.60;90.60;;;;;;4171515;28;19936;-48
2023/10/31 14:14:44;;;;;;;;;;;15.50;90.60;;;;;;4185588;28;20398;-49
2023/10/31 14:17:26;;;;;;;;;;;15.50;90.60;;;;;;4173996;28;19935;-52
2023/10/31 14:20:08;;;;;;;;;;;15.60;90.50;;;;;;4181978;28;20378;-52
2023/10/31 14:22:49;;;;;;;;;;;15.50;90.50;;;;;;4175634;28;20287;-51
2023/10/31 14:25:30;;;;;;;;;;;15.50;90.70;;;;;;4188471;28;19936;-50
2023/10/31 14:28:11;;;;;;;;;;;15.50;90.60;;;;;;4179766;28;19950;-50
2023/10/31 14:30:52;;;;;;;;;;;15.50;90.60;;;;;;4171860;28;20299;-48
2023/10/31 14:33:34;;;;;;;;;;;15.50;91.10;;;;;;4175553;28;20009;-48
2023/10/31 14:36:15;;;;;;;;;;;15.50;90.70;;;;;;4171292;28;20034;-49
2023/10/31 14:38:55;;;;;;;;;;;15.50;90.70;;;;;;4183306;28;19947;-50
2023/10/31 14:41:36;;;;;;;;;;;15.50;90.60;;;;;;4182765;28;20017;-51
2023/10/31 14:44:18;;;;;;;;;;;15.40;90.60;;;;;;4187918;28;19977;-49
2023/10/31 14:46:59;;;;;;;;;;;15.40;90.60;;;;;;4188033;28;20321;-52
2023/10/31 14:49:42;;;;;;;;;;;15.40;90.70;;;;;;4168973;28;19936;-49
2023/10/31 14:52:23;;;;;;;;;;;15.40;90.80;;;;;;4186296;28;19935;-47
2023/10/31 14:55:03;;;;;;;;;;;15.40;91.00;;;;;;4188309;28;19931;-46
2023/10/31 14:57:44;;;;;;;;;;;15.40;91.10;;;;;;4171182;28;20570;-46
2023/10/31 15:00:25;;;;;;;;;;;15.40;91.10;;;;;;4170634;28;19978;-46
2023/10/31 15:03:06;;;;;;;;;;;15.40;91.10;;;;;;4174752;28;20390;-48
2023/10/31 15:05:48;;;;;;;;;;;15.40;91.20;;;;;;4187951;28;20013;-48
2023/10/31 15:08:29;;;;;;;;;;;15.40;91.20;;;;;;4169510;28;19936;-45
2023/10/31 15:11:10;;;;;;;;;;;15.40;91.20;;;;;;4170763;28;20375;-46
2023/10/31 15:13:50;;;;;;;;;;;15.40;91.30;;;;;;4169097;28;19932;-46
2023/10/31 15:16:31;;;;;;;;;;;15.40;91.30;;;;;;4169272;28;20017;-47
2023/10/31 15:19:12;;;;;;;;;;;15.40;91.30;;;;;;4176488;28;20029;-47
2023/10/31 15:21:54;;;;;;;;;;;15.40;91.40;;;;;;4187168;28;19931;-45
2023/10/31 15:24:35;;;;;;;;;;;15.40;91.40;;;;;;4182846;28;19935;-47
2023/10/31 15:27:17;;;;;;;;;;;15.50;91.40;;;;;;4173305;28;19932;-45
2023/10/31 15:29:58;;;;;;;;;;;15.40;91.30;;;;;;4173651;28;19936;-46
2023/10/31 15:32:39;;;;;;;;;;;15.40;91.20;;;;;;4176105;28;20055;-47
2023/10/31 15:35:20;;;;;;;;;;;15.40;91.20;;;;;;4184084;28;20062;-47
2023/10/31 15:38:02;;;;;;;;;;;15.40;91.20;;;;;;4169336;28;20401;-46
2023/10/31 15:40:45;;;;;;;;;;;15.40;91.20;;;;;;4172530;28;25417;-46